createdAt,value
2022-11-15T00:12:42.339Z,5.17
2022-11-15T00:27:44.196Z,5.06
2022-11-15T00:42:46.935Z,5.05
2022-11-15T00:57:48.895Z,5.05
2022-11-15T01:12:51.499Z,5.04
2022-11-15T01:27:53.402Z,5.03
2022-11-15T01:42:55.278Z,5.19
2022-11-15T01:58:00.981Z,5.21
2022-11-15T02:13:05.257Z,5.10
2022-11-15T02:28:48.733Z,4.74
2022-11-15T02:43:57.824Z,4.72
2022-11-15T02:59:37.299Z,4.78
2022-11-15T03:15:05.882Z,4.58
2022-11-15T03:30:09.896Z,4.70
2022-11-15T03:45:24.166Z,4.61
2022-11-15T04:00:26.056Z,4.51
2022-11-15T04:15:28.094Z,4.15
2022-11-15T04:30:30.009Z,3.62
2022-11-15T04:45:31.999Z,3.49
2022-11-15T05:00:34.038Z,3.25
2022-11-15T05:15:37.920Z,3.36
2022-11-15T05:30:39.861Z,3.48
2022-11-15T05:45:41.726Z,6.00
2022-11-15T06:00:44.451Z,8.54
2022-11-15T06:15:46.780Z,10.01
2022-11-15T06:30:53.029Z,11.48
2022-11-15T06:45:55.263Z,12.64
2022-11-15T07:01:02.451Z,13.04
2022-11-15T07:16:10.030Z,13.42
2022-11-15T07:31:11.914Z,11.48
2022-11-15T07:46:14.124Z,14.18
2022-11-15T08:01:16.200Z,15.21
2022-11-15T08:16:18.358Z,15.24
2022-11-15T08:31:20.274Z,15.59
2022-11-15T08:46:22.146Z,15.42
2022-11-15T09:01:24.218Z,15.49
2022-11-15T09:16:28.504Z,15.98
2022-11-15T09:31:30.771Z,15.80
2022-11-15T09:47:07.685Z,16.37
2022-11-15T10:02:09.585Z,16.75
2022-11-15T10:17:17.587Z,16.56
2022-11-15T10:32:22.103Z,16.43
2022-11-15T10:47:37.740Z,16.25
2022-11-15T11:02:57.486Z,14.61
2022-11-15T11:18:10.801Z,14.26
2022-11-15T11:33:33.701Z,15.00
2022-11-15T11:48:42.838Z,16.82
2022-11-15T12:04:16.757Z,17.77
2022-11-15T12:19:18.826Z,18.05
2022-11-15T12:34:23.741Z,12.43
2022-11-15T12:49:28.412Z,10.45
2022-11-15T13:04:31.675Z,9.83
2022-11-15T13:19:33.978Z,9.61
2022-11-15T13:34:53.131Z,9.58
2022-11-15T13:49:58.597Z,9.39
2022-11-15T14:05:26.520Z,9.21
2022-11-15T14:20:33.354Z,9.10
2022-11-15T14:35:39.766Z,8.67
2022-11-15T14:50:41.696Z,8.43
2022-11-15T15:05:44.998Z,8.35
2022-11-15T15:20:58.634Z,8.36
2022-11-15T15:36:00.674Z,8.05
2022-11-15T15:51:07.299Z,7.94
2022-11-15T16:06:48.245Z,7.84
2022-11-15T16:21:50.131Z,7.78
2022-11-15T16:36:52.544Z,7.48
2022-11-15T16:51:54.496Z,7.12
2022-11-15T17:06:56.414Z,6.60
2022-11-15T17:21:58.719Z,6.27
2022-11-15T17:37:17.971Z,6.06
2022-11-15T17:52:19.809Z,6.00
2022-11-15T18:07:21.727Z,5.94
2022-11-15T18:22:23.791Z,5.94
2022-11-15T18:37:26.397Z,5.99
2022-11-15T18:52:30.101Z,5.94
2022-11-15T19:07:32.106Z,5.93
2022-11-15T19:22:34.194Z,6.01
2022-11-15T19:37:36.283Z,6.01
2022-11-15T19:52:38.190Z,6.25
2022-11-15T20:07:40.245Z,6.45
2022-11-15T20:22:48.603Z,6.56
2022-11-15T20:37:50.469Z,6.39
2022-11-15T20:52:52.966Z,6.56
2022-11-15T21:07:54.839Z,6.73
2022-11-15T21:22:56.915Z,6.80
2022-11-15T21:37:58.977Z,6.72
2022-11-15T21:53:00.955Z,6.84
2022-11-15T22:08:02.894Z,7.01
2022-11-15T22:23:05.580Z,7.06
2022-11-15T22:38:08.376Z,7.19
2022-11-15T22:53:10.478Z,7.18
2022-11-15T23:08:13.194Z,7.15
2022-11-15T23:23:15.369Z,7.22
2022-11-15T23:38:17.306Z,7.27
2022-11-15T23:53:19.350Z,7.28
